Station: EBLB - 26/09/2017 01:25Z (il y a 20 minutes)
EBLB 260125Z AUTO VRB01KT 9999 BKN050/// 04/04 Q1021 BLU
Vent de direction variable: 1 kt
Visibilité > 10 km
Ciel 75% couvert à 5000 pieds
Température: +04ºC - Point de rosée: +04ºC - QNH: 1021 hPa
Code couleur militaire: BLU (conditions VMC)